sensor_id;sensor_type;location;lat;lon;timestamp;P1;durP1;ratioP1;P2;durP2;ratioP2
51048;SDS011;37084;55.228;36.450;2022-11-30T00:02:20;19.25;;;7.88;;
51048;SDS011;37084;55.228;36.450;2022-11-30T00:05:22;21.40;;;8.02;;
51048;SDS011;37084;55.228;36.450;2022-11-30T00:08:25;16.55;;;7.00;;
51048;SDS011;37084;55.228;36.450;2022-11-30T00:11:29;18.75;;;8.05;;
51048;SDS011;37084;55.228;36.450;2022-11-30T00:14:34;17.55;;;7.00;;
51048;SDS011;37084;55.228;36.450;2022-11-30T00:17:36;18.17;;;7.50;;
51048;SDS011;37084;55.228;36.450;2022-11-30T00:20:38;19.70;;;8.48;;
51048;SDS011;37084;55.228;36.450;2022-11-30T00:23:41;19.27;;;8.02;;
51048;SDS011;37084;55.228;36.450;2022-11-30T00:26:44;16.08;;;8.13;;
51048;SDS011;37084;55.228;36.450;2022-11-30T00:29:47;20.00;;;7.20;;
51048;SDS011;37084;55.228;36.450;2022-11-30T00:32:50;17.75;;;6.28;;
51048;SDS011;37084;55.228;36.450;2022-11-30T00:36:00;17.63;;;7.07;;
51048;SDS011;37084;55.228;36.450;2022-11-30T00:39:04;12.80;;;6.03;;
51048;SDS011;37084;55.228;36.450;2022-11-30T00:42:06;21.42;;;6.85;;
51048;SDS011;37084;55.228;36.450;2022-11-30T00:45:08;13.93;;;6.63;;
51048;SDS011;37084;55.228;36.450;2022-11-30T00:48:11;14.95;;;6.18;;
51048;SDS011;37084;55.228;36.450;2022-11-30T00:51:13;14.52;;;7.68;;
51048;SDS011;37084;55.228;36.450;2022-11-30T00:54:15;15.88;;;7.13;;
51048;SDS011;37084;55.228;36.450;2022-11-30T00:57:18;13.38;;;6.63;;
51048;SDS011;37084;55.228;36.450;2022-11-30T01:00:20;12.35;;;5.72;;
51048;SDS011;37084;55.228;36.450;2022-11-30T01:03:28;14.30;;;6.18;;
51048;SDS011;37084;55.228;36.450;2022-11-30T01:06:30;12.80;;;6.57;;
51048;SDS011;37084;55.228;36.450;2022-11-30T01:09:33;16.33;;;5.95;;
51048;SDS011;37084;55.228;36.450;2022-11-30T01:12:35;18.90;;;8.68;;
51048;SDS011;37084;55.228;36.450;2022-11-30T01:15:38;19.88;;;7.72;;
51048;SDS011;37084;55.228;36.450;2022-11-30T01:18:42;21.85;;;7.18;;
51048;SDS011;37084;55.228;36.450;2022-11-30T01:21:45;16.55;;;8.13;;
51048;SDS011;37084;55.228;36.450;2022-11-30T01:24:47;14.13;;;6.53;;
51048;SDS011;37084;55.228;36.450;2022-11-30T01:27:50;15.85;;;7.63;;
51048;SDS011;37084;55.228;36.450;2022-11-30T01:30:57;17.35;;;7.65;;
51048;SDS011;37084;55.228;36.450;2022-11-30T01:34:00;11.95;;;5.78;;
51048;SDS011;37084;55.228;36.450;2022-11-30T01:37:02;15.82;;;6.32;;
51048;SDS011;37084;55.228;36.450;2022-11-30T01:40:05;14.98;;;6.22;;
51048;SDS011;37084;55.228;36.450;2022-11-30T01:43:11;19.08;;;7.55;;
51048;SDS011;37084;55.228;36.450;2022-11-30T01:46:26;17.02;;;7.05;;
51048;SDS011;37084;55.228;36.450;2022-11-30T01:49:34;20.55;;;6.93;;
51048;SDS011;37084;55.228;36.450;2022-11-30T01:52:40;11.77;;;6.40;;
51048;SDS011;37084;55.228;36.450;2022-11-30T01:55:44;14.07;;;6.68;;
51048;SDS011;37084;55.228;36.450;2022-11-30T01:58:48;15.15;;;6.63;;
51048;SDS011;37084;55.228;36.450;2022-11-30T02:01:51;20.10;;;7.53;;
51048;SDS011;37084;55.228;36.450;2022-11-30T02:04:54;16.75;;;6.75;;
51048;SDS011;37084;55.228;36.450;2022-11-30T02:07:56;22.65;;;6.57;;
51048;SDS011;37084;55.228;36.450;2022-11-30T02:11:02;15.32;;;7.93;;
51048;SDS011;37084;55.228;36.450;2022-11-30T02:17:44;19.67;;;7.55;;
51048;SDS011;37084;55.228;36.450;2022-11-30T02:21:09;22.17;;;7.25;;
51048;SDS011;37084;55.228;36.450;2022-11-30T02:24:30;16.50;;;6.68;;
51048;SDS011;37084;55.228;36.450;2022-11-30T02:31:01;17.73;;;7.13;;
51048;SDS011;37084;55.228;36.450;2022-11-30T02:34:05;13.48;;;6.18;;
51048;SDS011;37084;55.228;36.450;2022-11-30T02:37:08;18.67;;;8.23;;
51048;SDS011;37084;55.228;36.450;2022-11-30T02:40:14;17.38;;;7.68;;
51048;SDS011;37084;55.228;36.450;2022-11-30T02:43:25;19.75;;;7.57;;
51048;SDS011;37084;55.228;36.450;2022-11-30T02:46:40;17.55;;;7.55;;
51048;SDS011;37084;55.228;36.450;2022-11-30T02:49:59;19.27;;;8.27;;
51048;SDS011;37084;55.228;36.450;2022-11-30T02:56:24;12.38;;;5.68;;
51048;SDS011;37084;55.228;36.450;2022-11-30T02:59:29;11.48;;;6.20;;
51048;SDS011;37084;55.228;36.450;2022-11-30T03:02:32;13.45;;;6.18;;
51048;SDS011;37084;55.228;36.450;2022-11-30T03:05:34;18.38;;;6.38;;
51048;SDS011;37084;55.228;36.450;2022-11-30T03:08:37;14.82;;;7.10;;
51048;SDS011;37084;55.228;36.450;2022-11-30T03:11:39;17.35;;;6.93;;
51048;SDS011;37084;55.228;36.450;2022-11-30T03:14:41;8.98;;;5.53;;
51048;SDS011;37084;55.228;36.450;2022-11-30T03:17:46;17.58;;;6.95;;
51048;SDS011;37084;55.228;36.450;2022-11-30T03:20:48;9.52;;;5.32;;
51048;SDS011;37084;55.228;36.450;2022-11-30T03:23:50;17.25;;;7.93;;
51048;SDS011;37084;55.228;36.450;2022-11-30T03:26:52;15.70;;;8.13;;
51048;SDS011;37084;55.228;36.450;2022-11-30T03:29:55;17.70;;;7.38;;
51048;SDS011;37084;55.228;36.450;2022-11-30T03:32:57;14.57;;;6.82;;
51048;SDS011;37084;55.228;36.450;2022-11-30T03:39:24;18.42;;;8.07;;
51048;SDS011;37084;55.228;36.450;2022-11-30T03:42:27;20.38;;;8.60;;
51048;SDS011;37084;55.228;36.450;2022-11-30T03:45:30;19.90;;;7.40;;
51048;SDS011;37084;55.228;36.450;2022-11-30T03:48:32;12.55;;;7.28;;
51048;SDS011;37084;55.228;36.450;2022-11-30T03:51:36;14.40;;;8.43;;
51048;SDS011;37084;55.228;36.450;2022-11-30T03:54:38;13.48;;;6.97;;
51048;SDS011;37084;55.228;36.450;2022-11-30T03:57:40;18.25;;;7.50;;
51048;SDS011;37084;55.228;36.450;2022-11-30T04:00:43;17.67;;;6.93;;
51048;SDS011;37084;55.228;36.450;2022-11-30T04:03:45;8.60;;;5.55;;
51048;SDS011;37084;55.228;36.450;2022-11-30T04:06:48;15.93;;;6.55;;
51048;SDS011;37084;55.228;36.450;2022-11-30T04:09:50;14.55;;;7.88;;
51048;SDS011;37084;55.228;36.450;2022-11-30T04:12:52;14.57;;;7.35;;
51048;SDS011;37084;55.228;36.450;2022-11-30T04:15:55;22.80;;;7.93;;
51048;SDS011;37084;55.228;36.450;2022-11-30T04:18:57;12.07;;;6.32;;
51048;SDS011;37084;55.228;36.450;2022-11-30T04:22:03;17.33;;;5.90;;
51048;SDS011;37084;55.228;36.450;2022-11-30T04:25:04;13.10;;;6.25;;
51048;SDS011;37084;55.228;36.450;2022-11-30T04:28:08;15.10;;;7.38;;
51048;SDS011;37084;55.228;36.450;2022-11-30T04:31:10;16.60;;;7.95;;
51048;SDS011;37084;55.228;36.450;2022-11-30T04:34:11;15.13;;;7.65;;
51048;SDS011;37084;55.228;36.450;2022-11-30T04:37:13;23.08;;;9.23;;
51048;SDS011;37084;55.228;36.450;2022-11-30T04:40:14;18.05;;;7.22;;
51048;SDS011;37084;55.228;36.450;2022-11-30T04:43:17;18.65;;;7.72;;
51048;SDS011;37084;55.228;36.450;2022-11-30T04:46:19;23.67;;;8.45;;
51048;SDS011;37084;55.228;36.450;2022-11-30T04:49:20;13.60;;;7.13;;
51048;SDS011;37084;55.228;36.450;2022-11-30T04:52:22;20.25;;;6.65;;
51048;SDS011;37084;55.228;36.450;2022-11-30T04:55:25;11.90;;;6.00;;
51048;SDS011;37084;55.228;36.450;2022-11-30T04:58:27;19.48;;;8.15;;
51048;SDS011;37084;55.228;36.450;2022-11-30T05:01:28;21.17;;;8.98;;
51048;SDS011;37084;55.228;36.450;2022-11-30T05:04:31;11.60;;;7.38;;
51048;SDS011;37084;55.228;36.450;2022-11-30T05:07:33;18.30;;;8.57;;
51048;SDS011;37084;55.228;36.450;2022-11-30T05:10:35;15.30;;;8.18;;
51048;SDS011;37084;55.228;36.450;2022-11-30T05:13:38;13.55;;;6.25;;
51048;SDS011;37084;55.228;36.450;2022-11-30T05:16:41;20.08;;;8.27;;
51048;SDS011;37084;55.228;36.450;2022-11-30T05:19:43;16.65;;;6.10;;
51048;SDS011;37084;55.228;36.450;2022-11-30T05:22:44;17.45;;;7.60;;
51048;SDS011;37084;55.228;36.450;2022-11-30T05:25:45;14.50;;;8.35;;
51048;SDS011;37084;55.228;36.450;2022-11-30T05:28:47;13.00;;;6.00;;
51048;SDS011;37084;55.228;36.450;2022-11-30T05:31:50;15.30;;;6.32;;
51048;SDS011;37084;55.228;36.450;2022-11-30T05:34:52;10.43;;;6.40;;
51048;SDS011;37084;55.228;36.450;2022-11-30T05:37:55;19.52;;;6.63;;
51048;SDS011;37084;55.228;36.450;2022-11-30T05:40:59;22.63;;;7.95;;
51048;SDS011;37084;55.228;36.450;2022-11-30T05:44:03;14.52;;;8.57;;
51048;SDS011;37084;55.228;36.450;2022-11-30T05:47:05;15.18;;;8.65;;
51048;SDS011;37084;55.228;36.450;2022-11-30T05:50:08;18.17;;;8.30;;
51048;SDS011;37084;55.228;36.450;2022-11-30T05:53:10;14.07;;;5.43;;
51048;SDS011;37084;55.228;36.450;2022-11-30T05:59:18;22.83;;;10.13;;
51048;SDS011;37084;55.228;36.450;2022-11-30T06:02:21;17.00;;;8.00;;
51048;SDS011;37084;55.228;36.450;2022-11-30T06:05:24;17.13;;;8.50;;
51048;SDS011;37084;55.228;36.450;2022-11-30T06:08:27;18.20;;;7.53;;
51048;SDS011;37084;55.228;36.450;2022-11-30T06:11:29;23.45;;;7.72;;
51048;SDS011;37084;55.228;36.450;2022-11-30T06:14:32;19.48;;;8.38;;
51048;SDS011;37084;55.228;36.450;2022-11-30T06:17:34;22.17;;;8.23;;
51048;SDS011;37084;55.228;36.450;2022-11-30T06:20:39;18.60;;;8.27;;
51048;SDS011;37084;55.228;36.450;2022-11-30T06:23:41;21.77;;;9.60;;
51048;SDS011;37084;55.228;36.450;2022-11-30T06:26:43;17.75;;;8.80;;
51048;SDS011;37084;55.228;36.450;2022-11-30T06:29:45;22.17;;;7.45;;
51048;SDS011;37084;55.228;36.450;2022-11-30T06:32:49;18.92;;;8.07;;
51048;SDS011;37084;55.228;36.450;2022-11-30T06:35:52;15.35;;;7.82;;
51048;SDS011;37084;55.228;36.450;2022-11-30T06:38:55;17.92;;;8.77;;
51048;SDS011;37084;55.228;36.450;2022-11-30T06:41:57;18.00;;;8.15;;
51048;SDS011;37084;55.228;36.450;2022-11-30T06:44:59;12.52;;;6.22;;
51048;SDS011;37084;55.228;36.450;2022-11-30T06:48:02;22.45;;;9.07;;
51048;SDS011;37084;55.228;36.450;2022-11-30T06:51:07;19.40;;;8.00;;
51048;SDS011;37084;55.228;36.450;2022-11-30T06:54:10;17.42;;;9.18;;
51048;SDS011;37084;55.228;36.450;2022-11-30T06:57:13;24.88;;;10.95;;
51048;SDS011;37084;55.228;36.450;2022-11-30T07:00:15;22.25;;;9.98;;
51048;SDS011;37084;55.228;36.450;2022-11-30T07:03:18;22.20;;;9.45;;
51048;SDS011;37084;55.228;36.450;2022-11-30T07:06:20;22.38;;;9.90;;
51048;SDS011;37084;55.228;36.450;2022-11-30T07:09:23;22.15;;;9.35;;
51048;SDS011;37084;55.228;36.450;2022-11-30T07:12:25;26.10;;;11.65;;
51048;SDS011;37084;55.228;36.450;2022-11-30T07:15:27;26.45;;;9.57;;
51048;SDS011;37084;55.228;36.450;2022-11-30T07:18:29;23.02;;;9.68;;
51048;SDS011;37084;55.228;36.450;2022-11-30T07:21:32;18.13;;;7.45;;
51048;SDS011;37084;55.228;36.450;2022-11-30T07:24:35;22.63;;;9.60;;
51048;SDS011;37084;55.228;36.450;2022-11-30T07:27:57;22.27;;;9.00;;
51048;SDS011;37084;55.228;36.450;2022-11-30T07:30:59;24.95;;;10.30;;
51048;SDS011;37084;55.228;36.450;2022-11-30T07:34:03;25.90;;;9.10;;
51048;SDS011;37084;55.228;36.450;2022-11-30T07:37:07;27.05;;;11.05;;
51048;SDS011;37084;55.228;36.450;2022-11-30T07:40:10;25.73;;;9.90;;
51048;SDS011;37084;55.228;36.450;2022-11-30T07:43:12;20.95;;;9.50;;
51048;SDS011;37084;55.228;36.450;2022-11-30T07:46:15;27.33;;;10.57;;
51048;SDS011;37084;55.228;36.450;2022-11-30T07:49:19;24.90;;;10.68;;
51048;SDS011;37084;55.228;36.450;2022-11-30T07:52:21;27.13;;;9.65;;
51048;SDS011;37084;55.228;36.450;2022-11-30T07:55:23;24.23;;;10.38;;
51048;SDS011;37084;55.228;36.450;2022-11-30T07:58:27;23.88;;;10.05;;
51048;SDS011;37084;55.228;36.450;2022-11-30T08:01:30;18.73;;;9.70;;
51048;SDS011;37084;55.228;36.450;2022-11-30T08:04:33;21.67;;;9.50;;
51048;SDS011;37084;55.228;36.450;2022-11-30T08:07:35;23.98;;;10.15;;
51048;SDS011;37084;55.228;36.450;2022-11-30T08:10:38;19.88;;;8.88;;
51048;SDS011;37084;55.228;36.450;2022-11-30T08:13:40;23.63;;;9.90;;
51048;SDS011;37084;55.228;36.450;2022-11-30T08:16:43;26.80;;;10.63;;
51048;SDS011;37084;55.228;36.450;2022-11-30T08:19:45;22.48;;;10.73;;
51048;SDS011;37084;55.228;36.450;2022-11-30T08:22:48;25.30;;;10.73;;
51048;SDS011;37084;55.228;36.450;2022-11-30T08:25:52;21.80;;;10.35;;
51048;SDS011;37084;55.228;36.450;2022-11-30T08:28:55;23.90;;;10.32;;
51048;SDS011;37084;55.228;36.450;2022-11-30T08:31:58;25.48;;;10.48;;
51048;SDS011;37084;55.228;36.450;2022-11-30T08:35:01;21.17;;;11.00;;
51048;SDS011;37084;55.228;36.450;2022-11-30T08:38:05;26.48;;;10.40;;
51048;SDS011;37084;55.228;36.450;2022-11-30T08:41:07;24.80;;;10.48;;
51048;SDS011;37084;55.228;36.450;2022-11-30T08:44:11;20.00;;;8.55;;
51048;SDS011;37084;55.228;36.450;2022-11-30T08:47:13;21.70;;;10.60;;
51048;SDS011;37084;55.228;36.450;2022-11-30T08:50:16;19.05;;;9.57;;
51048;SDS011;37084;55.228;36.450;2022-11-30T08:53:18;23.13;;;10.63;;
51048;SDS011;37084;55.228;36.450;2022-11-30T08:56:20;23.20;;;10.05;;
51048;SDS011;37084;55.228;36.450;2022-11-30T08:59:26;21.40;;;10.27;;
51048;SDS011;37084;55.228;36.450;2022-11-30T09:02:28;22.98;;;11.13;;
51048;SDS011;37084;55.228;36.450;2022-11-30T09:05:31;21.38;;;10.30;;
51048;SDS011;37084;55.228;36.450;2022-11-30T09:08:33;22.75;;;11.50;;
51048;SDS011;37084;55.228;36.450;2022-11-30T09:11:35;20.80;;;10.07;;
51048;SDS011;37084;55.228;36.450;2022-11-30T09:14:38;23.02;;;12.10;;
51048;SDS011;37084;55.228;36.450;2022-11-30T09:17:40;21.30;;;11.13;;
51048;SDS011;37084;55.228;36.450;2022-11-30T09:20:42;23.95;;;12.05;;
51048;SDS011;37084;55.228;36.450;2022-11-30T09:23:46;22.30;;;10.00;;
51048;SDS011;37084;55.228;36.450;2022-11-30T09:26:49;23.63;;;10.85;;
51048;SDS011;37084;55.228;36.450;2022-11-30T09:29:51;27.50;;;11.73;;
51048;SDS011;37084;55.228;36.450;2022-11-30T09:32:52;22.80;;;9.65;;
51048;SDS011;37084;55.228;36.450;2022-11-30T09:35:55;20.88;;;9.85;;
51048;SDS011;37084;55.228;36.450;2022-11-30T09:38:59;20.75;;;9.63;;
51048;SDS011;37084;55.228;36.450;2022-11-30T09:45:29;22.13;;;11.05;;
51048;SDS011;37084;55.228;36.450;2022-11-30T09:51:45;26.35;;;10.77;;
51048;SDS011;37084;55.228;36.450;2022-11-30T09:54:48;21.08;;;10.82;;
51048;SDS011;37084;55.228;36.450;2022-11-30T09:57:53;23.42;;;11.13;;
51048;SDS011;37084;55.228;36.450;2022-11-30T10:00:57;23.58;;;10.57;;
51048;SDS011;37084;55.228;36.450;2022-11-30T10:04:00;21.58;;;11.35;;
51048;SDS011;37084;55.228;36.450;2022-11-30T10:13:58;22.55;;;12.43;;
51048;SDS011;37084;55.228;36.450;2022-11-30T10:17:26;24.13;;;12.68;;
51048;SDS011;37084;55.228;36.450;2022-11-30T10:27:16;22.58;;;11.57;;
51048;SDS011;37084;55.228;36.450;2022-11-30T10:30:23;31.05;;;13.55;;
51048;SDS011;37084;55.228;36.450;2022-11-30T10:33:29;21.58;;;11.43;;
51048;SDS011;37084;55.228;36.450;2022-11-30T10:36:36;22.38;;;11.40;;
51048;SDS011;37084;55.228;36.450;2022-11-30T10:39:42;22.38;;;10.18;;
51048;SDS011;37084;55.228;36.450;2022-11-30T10:43:12;22.92;;;11.15;;
51048;SDS011;37084;55.228;36.450;2022-11-30T10:46:37;21.52;;;10.93;;
51048;SDS011;37084;55.228;36.450;2022-11-30T10:49:44;25.77;;;12.07;;
51048;SDS011;37084;55.228;36.450;2022-11-30T10:52:51;25.85;;;11.15;;
51048;SDS011;37084;55.228;36.450;2022-11-30T11:05:43;24.98;;;10.85;;
51048;SDS011;37084;55.228;36.450;2022-11-30T11:08:46;22.73;;;10.85;;
51048;SDS011;37084;55.228;36.450;2022-11-30T11:11:51;22.45;;;10.45;;
51048;SDS011;37084;55.228;36.450;2022-11-30T11:18:23;23.08;;;10.23;;
51048;SDS011;37084;55.228;36.450;2022-11-30T11:21:26;22.85;;;10.32;;
51048;SDS011;37084;55.228;36.450;2022-11-30T11:24:28;21.40;;;9.75;;
51048;SDS011;37084;55.228;36.450;2022-11-30T11:27:30;23.20;;;12.27;;
51048;SDS011;37084;55.228;36.450;2022-11-30T11:30:32;20.08;;;9.82;;
51048;SDS011;37084;55.228;36.450;2022-11-30T11:33:34;21.45;;;9.95;;
51048;SDS011;37084;55.228;36.450;2022-11-30T11:36:35;20.02;;;10.05;;
51048;SDS011;37084;55.228;36.450;2022-11-30T11:39:38;22.63;;;9.85;;
51048;SDS011;37084;55.228;36.450;2022-11-30T11:42:45;21.52;;;10.85;;
51048;SDS011;37084;55.228;36.450;2022-11-30T11:45:51;20.55;;;10.27;;
51048;SDS011;37084;55.228;36.450;2022-11-30T11:48:56;23.80;;;10.88;;
51048;SDS011;37084;55.228;36.450;2022-11-30T11:52:03;20.17;;;9.77;;
51048;SDS011;37084;55.228;36.450;2022-11-30T11:55:15;21.42;;;8.82;;
51048;SDS011;37084;55.228;36.450;2022-11-30T11:58:20;21.30;;;11.68;;
51048;SDS011;37084;55.228;36.450;2022-11-30T12:11:46;26.20;;;12.80;;
51048;SDS011;37084;55.228;36.450;2022-11-30T12:14:49;25.08;;;12.75;;
51048;SDS011;37084;55.228;36.450;2022-11-30T12:20:55;30.98;;;12.43;;
51048;SDS011;37084;55.228;36.450;2022-11-30T12:34:18;26.15;;;10.48;;
51048;SDS011;37084;55.228;36.450;2022-11-30T12:47:43;23.35;;;10.95;;
51048;SDS011;37084;55.228;36.450;2022-11-30T12:51:08;23.35;;;10.98;;
51048;SDS011;37084;55.228;36.450;2022-11-30T12:54:45;29.23;;;11.20;;
51048;SDS011;37084;55.228;36.450;2022-11-30T12:58:14;27.77;;;10.95;;
51048;SDS011;37084;55.228;36.450;2022-11-30T13:01:47;25.90;;;11.23;;
51048;SDS011;37084;55.228;36.450;2022-11-30T13:05:06;26.33;;;10.45;;
51048;SDS011;37084;55.228;36.450;2022-11-30T13:11:21;21.58;;;9.90;;
51048;SDS011;37084;55.228;36.450;2022-11-30T13:14:27;26.15;;;11.35;;
51048;SDS011;37084;55.228;36.450;2022-11-30T13:17:29;29.60;;;10.43;;
51048;SDS011;37084;55.228;36.450;2022-11-30T13:20:33;30.08;;;11.77;;
51048;SDS011;37084;55.228;36.450;2022-11-30T13:30:32;59.53;;;17.17;;
51048;SDS011;37084;55.228;36.450;2022-11-30T13:36:49;36.15;;;12.05;;
51048;SDS011;37084;55.228;36.450;2022-11-30T13:39:51;32.05;;;10.55;;
51048;SDS011;37084;55.228;36.450;2022-11-30T13:42:54;28.40;;;11.25;;
51048;SDS011;37084;55.228;36.450;2022-11-30T13:46:03;30.55;;;11.57;;
51048;SDS011;37084;55.228;36.450;2022-11-30T13:49:17;27.35;;;10.55;;
51048;SDS011;37084;55.228;36.450;2022-11-30T13:56:02;27.63;;;11.20;;
51048;SDS011;37084;55.228;36.450;2022-11-30T14:05:35;24.58;;;10.07;;
51048;SDS011;37084;55.228;36.450;2022-11-30T14:08:39;14.20;;;7.07;;
51048;SDS011;37084;55.228;36.450;2022-11-30T14:11:47;28.35;;;10.40;;
51048;SDS011;37084;55.228;36.450;2022-11-30T14:14:50;26.73;;;9.77;;
51048;SDS011;37084;55.228;36.450;2022-11-30T14:17:53;17.75;;;8.82;;
51048;SDS011;37084;55.228;36.450;2022-11-30T14:24:16;25.08;;;9.80;;
51048;SDS011;37084;55.228;36.450;2022-11-30T14:27:22;29.30;;;9.45;;
51048;SDS011;37084;55.228;36.450;2022-11-30T14:30:26;27.50;;;9.75;;
51048;SDS011;37084;55.228;36.450;2022-11-30T14:34:17;26.23;;;10.35;;
51048;SDS011;37084;55.228;36.450;2022-11-30T14:40:52;27.50;;;9.82;;
51048;SDS011;37084;55.228;36.450;2022-11-30T14:44:02;19.65;;;8.50;;
51048;SDS011;37084;55.228;36.450;2022-11-30T14:50:26;22.20;;;8.68;;
51048;SDS011;37084;55.228;36.450;2022-11-30T14:53:38;17.88;;;7.30;;
51048;SDS011;37084;55.228;36.450;2022-11-30T14:56:51;23.30;;;10.05;;
51048;SDS011;37084;55.228;36.450;2022-11-30T14:59:56;24.63;;;8.45;;
51048;SDS011;37084;55.228;36.450;2022-11-30T15:02:58;20.38;;;8.45;;
51048;SDS011;37084;55.228;36.450;2022-11-30T15:06:00;17.35;;;7.18;;
51048;SDS011;37084;55.228;36.450;2022-11-30T15:09:03;24.45;;;9.20;;
51048;SDS011;37084;55.228;36.450;2022-11-30T15:12:06;21.45;;;8.18;;
51048;SDS011;37084;55.228;36.450;2022-11-30T15:21:18;22.65;;;7.43;;
51048;SDS011;37084;55.228;36.450;2022-11-30T15:24:27;20.95;;;8.52;;
51048;SDS011;37084;55.228;36.450;2022-11-30T15:27:30;21.02;;;8.18;;
51048;SDS011;37084;55.228;36.450;2022-11-30T15:30:36;20.60;;;8.13;;
51048;SDS011;37084;55.228;36.450;2022-11-30T15:33:41;17.95;;;6.93;;
51048;SDS011;37084;55.228;36.450;2022-11-30T15:36:46;21.27;;;8.02;;
51048;SDS011;37084;55.228;36.450;2022-11-30T15:39:51;22.48;;;7.65;;
51048;SDS011;37084;55.228;36.450;2022-11-30T15:42:57;17.27;;;6.28;;
51048;SDS011;37084;55.228;36.450;2022-11-30T15:46:01;20.02;;;8.48;;
51048;SDS011;37084;55.228;36.450;2022-11-30T15:49:22;24.48;;;8.48;;
51048;SDS011;37084;55.228;36.450;2022-11-30T15:52:29;21.27;;;8.35;;
51048;SDS011;37084;55.228;36.450;2022-11-30T15:55:42;25.20;;;9.10;;
51048;SDS011;37084;55.228;36.450;2022-11-30T15:59:04;24.95;;;10.30;;
51048;SDS011;37084;55.228;36.450;2022-11-30T16:02:25;30.70;;;9.80;;
51048;SDS011;37084;55.228;36.450;2022-11-30T16:05:29;22.42;;;9.45;;
51048;SDS011;37084;55.228;36.450;2022-11-30T16:08:33;24.63;;;9.50;;
51048;SDS011;37084;55.228;36.450;2022-11-30T16:11:36;21.33;;;10.15;;
51048;SDS011;37084;55.228;36.450;2022-11-30T16:14:38;23.23;;;9.55;;
51048;SDS011;37084;55.228;36.450;2022-11-30T16:17:43;23.58;;;9.77;;
51048;SDS011;37084;55.228;36.450;2022-11-30T16:20:58;26.17;;;10.30;;
51048;SDS011;37084;55.228;36.450;2022-11-30T16:24:02;18.95;;;8.43;;
51048;SDS011;37084;55.228;36.450;2022-11-30T16:27:18;21.15;;;8.15;;
51048;SDS011;37084;55.228;36.450;2022-11-30T16:30:21;19.95;;;8.30;;
51048;SDS011;37084;55.228;36.450;2022-11-30T16:33:24;23.23;;;8.52;;
51048;SDS011;37084;55.228;36.450;2022-11-30T16:36:27;20.35;;;8.35;;
51048;SDS011;37084;55.228;36.450;2022-11-30T16:39:31;23.52;;;9.57;;
51048;SDS011;37084;55.228;36.450;2022-11-30T16:42:33;23.85;;;8.05;;
51048;SDS011;37084;55.228;36.450;2022-11-30T16:45:36;21.95;;;7.60;;
51048;SDS011;37084;55.228;36.450;2022-11-30T16:48:40;21.88;;;9.32;;
51048;SDS011;37084;55.228;36.450;2022-11-30T16:51:45;20.80;;;8.40;;
51048;SDS011;37084;55.228;36.450;2022-11-30T16:54:47;23.95;;;8.25;;
51048;SDS011;37084;55.228;36.450;2022-11-30T16:57:50;20.00;;;6.57;;
51048;SDS011;37084;55.228;36.450;2022-11-30T17:00:53;24.42;;;9.35;;
51048;SDS011;37084;55.228;36.450;2022-11-30T17:03:59;21.60;;;10.07;;
51048;SDS011;37084;55.228;36.450;2022-11-30T17:07:02;19.48;;;8.18;;
51048;SDS011;37084;55.228;36.450;2022-11-30T17:10:06;28.00;;;8.70;;
51048;SDS011;37084;55.228;36.450;2022-11-30T17:13:13;14.95;;;6.97;;
51048;SDS011;37084;55.228;36.450;2022-11-30T17:19:20;24.55;;;8.18;;
51048;SDS011;37084;55.228;36.450;2022-11-30T17:22:25;19.50;;;7.47;;
51048;SDS011;37084;55.228;36.450;2022-11-30T17:25:27;28.17;;;9.27;;
51048;SDS011;37084;55.228;36.450;2022-11-30T17:28:31;24.15;;;8.85;;
51048;SDS011;37084;55.228;36.450;2022-11-30T17:31:34;21.85;;;7.63;;
51048;SDS011;37084;55.228;36.450;2022-11-30T17:34:36;21.75;;;8.55;;
51048;SDS011;37084;55.228;36.450;2022-11-30T17:37:41;18.08;;;6.55;;
51048;SDS011;37084;55.228;36.450;2022-11-30T17:40:44;23.02;;;7.82;;
51048;SDS011;37084;55.228;36.450;2022-11-30T17:43:48;23.80;;;9.00;;
51048;SDS011;37084;55.228;36.450;2022-11-30T17:46:50;24.02;;;9.20;;
51048;SDS011;37084;55.228;36.450;2022-11-30T17:49:55;24.42;;;9.80;;
51048;SDS011;37084;55.228;36.450;2022-11-30T17:52:58;15.00;;;7.03;;
51048;SDS011;37084;55.228;36.450;2022-11-30T17:56:01;14.35;;;6.47;;
51048;SDS011;37084;55.228;36.450;2022-11-30T17:59:23;14.50;;;6.05;;
51048;SDS011;37084;55.228;36.450;2022-11-30T18:02:26;9.90;;;4.43;;
51048;SDS011;37084;55.228;36.450;2022-11-30T18:05:30;21.52;;;8.60;;
51048;SDS011;37084;55.228;36.450;2022-11-30T18:08:33;21.77;;;7.95;;
51048;SDS011;37084;55.228;36.450;2022-11-30T18:11:36;16.65;;;7.28;;
51048;SDS011;37084;55.228;36.450;2022-11-30T18:14:39;19.08;;;5.50;;
51048;SDS011;37084;55.228;36.450;2022-11-30T18:17:41;26.83;;;8.30;;
51048;SDS011;37084;55.228;36.450;2022-11-30T18:20:44;24.50;;;8.60;;
51048;SDS011;37084;55.228;36.450;2022-11-30T18:23:46;23.45;;;9.55;;
51048;SDS011;37084;55.228;36.450;2022-11-30T18:26:49;24.20;;;9.40;;
51048;SDS011;37084;55.228;36.450;2022-11-30T18:29:52;27.17;;;10.00;;
51048;SDS011;37084;55.228;36.450;2022-11-30T18:32:54;19.80;;;7.65;;
51048;SDS011;37084;55.228;36.450;2022-11-30T18:35:58;23.48;;;8.63;;
51048;SDS011;37084;55.228;36.450;2022-11-30T18:39:01;23.02;;;8.60;;
51048;SDS011;37084;55.228;36.450;2022-11-30T18:42:03;29.17;;;8.95;;
51048;SDS011;37084;55.228;36.450;2022-11-30T18:45:06;28.70;;;9.38;;
51048;SDS011;37084;55.228;36.450;2022-11-30T18:48:09;24.25;;;8.32;;
51048;SDS011;37084;55.228;36.450;2022-11-30T18:51:12;19.83;;;8.15;;
51048;SDS011;37084;55.228;36.450;2022-11-30T18:54:27;29.73;;;9.35;;
51048;SDS011;37084;55.228;36.450;2022-11-30T18:57:31;25.33;;;7.05;;
51048;SDS011;37084;55.228;36.450;2022-11-30T19:00:33;22.05;;;9.48;;
51048;SDS011;37084;55.228;36.450;2022-11-30T19:03:36;17.20;;;6.57;;
51048;SDS011;37084;55.228;36.450;2022-11-30T19:06:39;14.40;;;6.90;;
51048;SDS011;37084;55.228;36.450;2022-11-30T19:09:43;21.20;;;7.80;;
51048;SDS011;37084;55.228;36.450;2022-11-30T19:12:45;20.00;;;9.23;;
51048;SDS011;37084;55.228;36.450;2022-11-30T19:15:48;24.02;;;8.50;;
51048;SDS011;37084;55.228;36.450;2022-11-30T19:18:50;28.90;;;8.93;;
51048;SDS011;37084;55.228;36.450;2022-11-30T19:21:53;23.38;;;9.23;;
51048;SDS011;37084;55.228;36.450;2022-11-30T19:24:55;28.27;;;9.77;;
51048;SDS011;37084;55.228;36.450;2022-11-30T19:27:57;26.55;;;9.82;;
51048;SDS011;37084;55.228;36.450;2022-11-30T19:31:04;27.98;;;9.50;;
51048;SDS011;37084;55.228;36.450;2022-11-30T19:34:10;23.23;;;8.20;;
51048;SDS011;37084;55.228;36.450;2022-11-30T19:37:12;16.13;;;7.82;;
51048;SDS011;37084;55.228;36.450;2022-11-30T19:40:16;20.25;;;7.85;;
51048;SDS011;37084;55.228;36.450;2022-11-30T19:43:18;20.17;;;7.38;;
51048;SDS011;37084;55.228;36.450;2022-11-30T19:46:20;20.60;;;8.88;;
51048;SDS011;37084;55.228;36.450;2022-11-30T19:49:23;27.02;;;8.73;;
51048;SDS011;37084;55.228;36.450;2022-11-30T19:52:25;20.95;;;7.43;;
51048;SDS011;37084;55.228;36.450;2022-11-30T19:55:28;15.70;;;7.18;;
51048;SDS011;37084;55.228;36.450;2022-11-30T19:58:31;26.38;;;8.57;;
51048;SDS011;37084;55.228;36.450;2022-11-30T20:01:33;21.42;;;8.70;;
51048;SDS011;37084;55.228;36.450;2022-11-30T20:04:36;20.23;;;8.63;;